Time;durP1;ratioP1;P1;durP2;ratioP2;P2;SDS_P1;SDS_P2;PMS_P1;PMS_P2;Temp;Humidity;BMP_temperature;BMP_pressure;BME280_temperature;BME280_humidity;BME280_pressure;Samples;Min_cycle;Max_cycle;Signal;HPM_P1;HPM_P2
2022/06/12 00:00:10;;;;;;;0.00;0.00;;;12.20;99.90;;;;;;4850003;29;20408;-90
2022/06/12 00:02:36;;;;;;;0.10;0.10;;;12.20;99.90;;;;;;4865334;29;20136;-86
2022/06/12 00:05:01;;;;;;;0.10;0.10;;;12.20;99.90;;;;;;4881517;29;20145;-86
2022/06/12 00:07:27;;;;;;;0.20;0.20;;;12.20;99.90;;;;;;4865480;29;20563;-86
2022/06/12 00:09:53;;;;;;;0.00;0.00;;;12.10;99.90;;;;;;4880905;29;20077;-86
2022/06/12 00:12:18;;;;;;;0.00;0.00;;;12.00;99.90;;;;;;4880819;29;20127;-86
2022/06/12 00:14:44;;;;;;;0.10;0.10;;;11.90;99.90;;;;;;4865529;29;20037;-86
2022/06/12 00:17:10;;;;;;;0.10;0.10;;;12.00;99.90;;;;;;4895384;29;20506;-86
2022/06/12 00:19:37;;;;;;;3.72;0.43;;;11.90;99.90;;;;;;4899254;29;20431;-86
2022/06/12 00:22:03;;;;;;;0.43;0.43;;;11.90;99.90;;;;;;4884247;29;20080;-86
2022/06/12 00:24:29;;;;;;;0.98;0.75;;;11.90;99.90;;;;;;4899259;29;20040;-86
2022/06/12 00:26:56;;;;;;;0.10;0.10;;;12.00;99.90;;;;;;4883640;29;20111;-86
2022/06/12 00:29:34;;;;;;;0.10;0.10;;;12.00;99.90;;;;;;4899322;29;20131;-85
2022/06/12 00:32:04;;;;;;;1.88;1.75;;;12.10;99.90;;;;;;4883737;29;20104;-86
2022/06/12 00:34:34;;;;;;;0.00;0.00;;;12.20;99.90;;;;;;4883785;29;20123;-86
2022/06/12 00:37:00;;;;;;;0.00;0.00;;;12.20;99.90;;;;;;4899617;29;20107;-85
2022/06/12 00:39:27;;;;;;;0.10;0.10;;;12.20;99.90;;;;;;4883548;29;20041;-85
2022/06/12 00:41:56;;;;;;;0.00;0.00;;;12.10;99.90;;;;;;4899197;29;20056;-86
2022/06/12 00:44:31;;;;;;;0.22;0.22;;;12.10;99.90;;;;;;4898906;29;20048;-86
2022/06/12 00:47:00;;;;;;;0.20;0.10;;;12.10;99.90;;;;;;4899192;29;20104;-86
2022/06/12 00:49:31;;;;;;;0.10;0.10;;;12.10;99.90;;;;;;4893381;29;20100;-86
2022/06/12 00:52:25;;;;;;;0.00;0.00;;;12.10;99.90;;;;;;4897282;29;20051;-86
2022/06/12 00:54:59;;;;;;;0.10;0.10;;;12.10;99.90;;;;;;4898941;29;20045;-85
2022/06/12 00:57:26;;;;;;;0.63;0.32;;;12.10;99.90;;;;;;4896350;29;20048;-86
2022/06/12 00:59:56;;;;;;;0.08;0.08;;;12.10;99.90;;;;;;4898450;29;20526;-86
2022/06/12 01:02:25;;;;;;;0.43;0.43;;;12.00;99.90;;;;;;4892348;29;20047;-86
2022/06/12 01:07:38;;;;;;;0.00;0.00;;;12.00;99.90;;;;;;4898582;29;20079;-85
2022/06/12 01:10:08;;;;;;;0.03;0.03;;;12.10;99.90;;;;;;4898354;29;20044;-86
2022/06/12 01:12:43;;;;;;;0.90;0.30;;;11.90;99.90;;;;;;4883098;29;20105;-86
2022/06/12 01:15:14;;;;;;;0.17;0.17;;;;;;;;;;4882754;29;20047;-85
2022/06/12 01:17:41;;;;;;;0.10;0.10;;;11.70;99.90;;;;;;4882645;29;20052;-86
2022/06/12 01:20:11;;;;;;;0.20;0.20;;;11.70;99.90;;;;;;4883108;29;20128;-85
2022/06/12 01:22:58;;;;;;;0.00;0.00;;;11.70;99.90;;;;;;4882975;29;20440;-86
2022/06/12 01:25:43;;;;;;;0.00;0.00;;;11.70;99.90;;;;;;4882592;29;20127;-86
2022/06/12 01:28:33;;;;;;;0.10;0.10;;;11.70;99.90;;;;;;4898296;29;20047;-86
2022/06/12 01:31:06;;;;;;;0.00;0.00;;;11.70;99.90;;;;;;4882458;29;20491;-86
2022/06/12 01:34:10;;;;;;;0.22;0.22;;;11.80;99.90;;;;;;4882774;29;20039;-86
2022/06/12 01:36:57;;;;;;;0.50;0.50;;;11.80;99.90;;;;;;4882656;29;20040;-86
2022/06/12 01:39:46;;;;;;;0.10;0.10;;;11.80;99.90;;;;;;4882464;29;20041;-86
2022/06/12 01:42:33;;;;;;;0.00;0.00;;;11.80;99.90;;;;;;4875444;29;20052;-86
2022/06/12 01:45:30;;;;;;;0.13;0.10;;;11.80;99.90;;;;;;4897604;29;20040;-88
2022/06/12 01:48:34;;;;;;;0.08;0.08;;;11.80;99.90;;;;;;4882351;29;20509;-89
2022/06/12 01:51:23;;;;;;;5.07;1.08;;;11.80;99.90;;;;;;4852067;29;20060;-89
2022/06/12 01:54:03;;;;;;;0.20;0.20;;;11.80;99.90;;;;;;4897517;29;20108;-88
2022/06/12 01:56:44;;;;;;;0.10;0.10;;;11.70;99.90;;;;;;4897944;29;20055;-89
2022/06/12 01:59:22;;;;;;;0.28;0.28;;;11.60;99.90;;;;;;4897256;29;20057;-86
2022/06/12 02:01:56;;;;;;;0.00;0.00;;;11.60;99.90;;;;;;4897400;29;20045;-86
2022/06/12 02:04:31;;;;;;;0.25;0.25;;;11.50;99.90;;;;;;4882085;29;20104;-86
2022/06/12 02:07:08;;;;;;;0.10;0.10;;;11.40;99.90;;;;;;4882585;29;20380;-86
2022/06/12 02:09:46;;;;;;;0.00;0.00;;;11.40;99.90;;;;;;4897646;29;20036;-86
2022/06/12 02:15:09;;;;;;;1.27;0.52;;;11.40;99.90;;;;;;4878171;29;20045;-86
2022/06/12 02:17:41;;;;;;;0.10;0.10;;;11.40;99.90;;;;;;4863581;29;20041;-89
2022/06/12 02:20:11;;;;;;;0.43;0.28;;;11.40;99.90;;;;;;4878842;29;20400;-89
2022/06/12 02:22:40;;;;;;;0.30;0.30;;;11.40;99.90;;;;;;4878493;29;20399;-89
2022/06/12 02:25:11;;;;;;;0.20;0.20;;;11.50;99.90;;;;;;4878509;29;20515;-89
2022/06/12 02:27:45;;;;;;;0.35;0.20;;;11.60;99.90;;;;;;4863009;29;20582;-88
2022/06/12 02:30:19;;;;;;;0.00;0.00;;;11.60;99.90;;;;;;4868009;29;20095;-89
2022/06/12 02:33:12;;;;;;;0.20;0.20;;;11.50;99.90;;;;;;4881728;29;20104;-86
2022/06/12 02:35:46;;;;;;;0.20;0.20;;;11.50;99.90;;;;;;4881689;29;20545;-85
2022/06/12 02:38:36;;;;;;;0.00;0.00;;;11.60;99.90;;;;;;4897483;29;20041;-85
2022/06/12 02:41:07;;;;;;;0.10;0.10;;;11.60;99.90;;;;;;4890376;29;20044;-86
2022/06/12 02:43:37;;;;;;;0.00;0.00;;;11.60;99.90;;;;;;4897047;29;20048;-86
2022/06/12 02:46:11;;;;;;;1.45;0.50;;;11.60;99.90;;;;;;4897094;29;20037;-85
2022/06/12 02:48:37;;;;;;;0.00;0.00;;;11.60;99.90;;;;;;4881518;29;20100;-86
2022/06/12 02:51:06;;;;;;;0.10;0.10;;;11.70;99.90;;;;;;4894149;29;20420;-89
2022/06/12 02:53:49;;;;;;;0.00;0.00;;;11.70;99.90;;;;;;4862926;29;20083;-88
2022/06/12 02:57:02;;;;;;;5.07;0.95;;;11.70;99.90;;;;;;4878311;29;20224;-90
2022/06/12 02:59:59;;;;;;;0.17;0.17;;;11.70;99.90;;;;;;4874113;29;20101;-89
2022/06/12 03:02:57;;;;;;;3.25;1.02;;;11.60;99.90;;;;;;4862831;29;20056;-90
2022/06/12 03:05:38;;;;;;;0.00;0.00;;;11.70;99.90;;;;;;4878254;29;20053;-89
2022/06/12 03:08:15;;;;;;;0.10;0.10;;;11.70;99.90;;;;;;4862924;29;20056;-85
2022/06/12 03:10:47;;;;;;;0.00;0.00;;;11.60;99.90;;;;;;4888266;29;20041;-85
2022/06/12 03:13:15;;;;;;;2.20;1.08;;;11.70;99.90;;;;;;4862994;29;20052;-85
2022/06/12 03:15:58;;;;;;;0.00;0.00;;;11.60;99.90;;;;;;4878217;29;20045;-86
2022/06/12 03:18:35;;;;;;;0.00;0.00;;;11.60;99.90;;;;;;4878409;29;20384;-86
2022/06/12 03:21:19;;;;;;;0.30;0.30;;;11.60;99.90;;;;;;4878193;29;20051;-85
2022/06/12 03:23:47;;;;;;;0.20;0.20;;;11.70;99.90;;;;;;4878477;29;20080;-85
2022/06/12 03:26:26;;;;;;;0.00;0.00;;;11.70;99.90;;;;;;4881004;29;20053;-86
2022/06/12 03:29:04;;;;;;;0.10;0.10;;;11.70;99.90;;;;;;4881503;29;20488;-85
2022/06/12 03:31:29;;;;;;;0.03;0.03;;;11.70;99.90;;;;;;4881548;29;20056;-85
2022/06/12 03:34:32;;;;;;;0.22;0.22;;;11.80;99.90;;;;;;4883566;29;20057;-85
2022/06/12 03:37:37;;;;;;;0.30;0.30;;;11.90;99.90;;;;;;4900048;29;20044;-85
2022/06/12 03:40:32;;;;;;;0.00;0.00;;;12.00;99.90;;;;;;4862377;29;20049;-89
2022/06/12 03:43:11;;;;;;;0.30;0.30;;;12.10;99.90;;;;;;4869689;29;20112;-90
2022/06/12 03:45:42;;;;;;;0.10;0.10;;;12.30;99.90;;;;;;4885053;29;20040;-89
2022/06/12 03:48:20;;;;;;;0.25;0.25;;;12.40;99.90;;;;;;4900392;29;20045;-89
2022/06/12 03:51:24;;;;;;;1.98;0.57;;;12.40;99.90;;;;;;4885376;29;20044;-90
2022/06/12 03:53:53;;;;;;;0.50;0.50;;;12.50;99.90;;;;;;4885675;29;20044;-89
2022/06/12 03:59:25;;;;;;;0.10;0.10;;;12.80;99.90;;;;;;4899802;29;20408;-85
2022/06/12 04:01:52;;;;;;;0.30;0.30;;;12.80;99.90;;;;;;4900200;29;20052;-85
2022/06/12 04:04:21;;;;;;;0.20;0.20;;;12.80;99.90;;;;;;4884901;29;20067;-85
2022/06/12 04:06:48;;;;;;;0.10;0.10;;;12.80;99.90;;;;;;4899919;29;20496;-85
2022/06/12 04:09:18;;;;;;;0.10;0.10;;;12.80;99.90;;;;;;4884148;29;20052;-86
2022/06/12 04:11:53;;;;;;;0.20;0.20;;;12.70;99.90;;;;;;4884288;29;20049;-86
2022/06/12 04:14:21;;;;;;;0.45;0.20;;;12.70;99.90;;;;;;4899471;29;20452;-86
2022/06/12 04:16:51;;;;;;;1.27;0.90;;;12.70;99.90;;;;;;4899643;29;20037;-86
2022/06/12 04:19:22;;;;;;;0.50;0.50;;;12.70;99.90;;;;;;4899393;29;20076;-86
2022/06/12 04:22:11;;;;;;;0.75;0.55;;;12.70;99.90;;;;;;4883910;29;20084;-86
2022/06/12 04:24:52;;;;;;;0.10;0.10;;;12.70;99.90;;;;;;4899934;29;20045;-86
2022/06/12 04:27:33;;;;;;;1.95;0.43;;;12.80;99.90;;;;;;4883724;29;20049;-86
2022/06/12 04:30:23;;;;;;;1.92;0.63;;;12.90;99.90;;;;;;4899211;29;20495;-85
2022/06/12 04:32:49;;;;;;;0.10;0.10;;;12.90;99.90;;;;;;4899280;29;20044;-85
2022/06/12 04:35:16;;;;;;;0.28;0.28;;;13.00;99.90;;;;;;4883992;29;20044;-85
2022/06/12 04:37:42;;;;;;;0.43;0.43;;;13.10;99.90;;;;;;4883303;29;20389;-85
2022/06/12 04:40:21;;;;;;;0.70;0.65;;;13.20;99.90;;;;;;4899557;29;20050;-85
2022/06/12 04:42:47;;;;;;;0.30;0.30;;;13.30;99.90;;;;;;4899129;29;20149;-85
2022/06/12 04:45:12;;;;;;;0.20;0.20;;;13.40;99.90;;;;;;4899128;29;20076;-85
2022/06/12 04:47:40;;;;;;;2.17;1.98;;;13.50;99.90;;;;;;4898889;29;20059;-86
2022/06/12 04:50:08;;;;;;;0.10;0.10;;;13.50;99.90;;;;;;4883170;29;20100;-86
2022/06/12 04:52:34;;;;;;;0.30;0.30;;;13.60;99.90;;;;;;4898805;29;20051;-86
2022/06/12 04:55:00;;;;;;;0.00;0.00;;;13.60;99.90;;;;;;4883194;29;20041;-86
2022/06/12 04:57:25;;;;;;;0.22;0.22;;;13.70;99.90;;;;;;4898560;29;20156;-86
2022/06/12 04:59:52;;;;;;;0.10;0.10;;;13.80;99.90;;;;;;4898644;29;20139;-86
2022/06/12 05:02:18;;;;;;;0.05;0.05;;;14.00;99.90;;;;;;4898613;29;20044;-87
2022/06/12 05:04:44;;;;;;;0.20;0.20;;;14.10;99.90;;;;;;4898470;29;20096;-85
2022/06/12 05:07:12;;;;;;;0.10;0.10;;;14.30;99.90;;;;;;4883449;29;20048;-85
2022/06/12 05:09:42;;;;;;;0.20;0.20;;;14.40;99.90;;;;;;4883400;29;20041;-85
2022/06/12 05:12:12;;;;;;;0.00;0.00;;;14.60;99.90;;;;;;4881875;29;20048;-85
2022/06/12 05:14:38;;;;;;;2.25;0.77;;;14.70;99.90;;;;;;4891505;23;20505;-82
2022/06/12 05:17:10;;;;;;;0.00;0.00;;;14.80;99.90;;;;;;4879492;29;20101;-82
2022/06/12 05:19:38;;;;;;;3.30;0.10;;;15.10;99.90;;;;;;4864367;29;20526;-86
2022/06/12 05:22:07;;;;;;;0.17;0.17;;;15.30;99.90;;;;;;4879435;29;20045;-86
2022/06/12 05:24:34;;;;;;;0.30;0.30;;;15.50;99.90;;;;;;4879273;29;20084;-86
2022/06/12 05:27:01;;;;;;;0.25;0.25;;;15.60;99.90;;;;;;4873002;29;20052;-86
2022/06/12 05:29:34;;;;;;;0.20;0.20;;;15.80;99.90;;;;;;4878944;29;20050;-86
2022/06/12 05:32:01;;;;;;;0.00;0.00;;;15.90;99.90;;;;;;4879567;29;20049;-86
2022/06/12 05:34:27;;;;;;;0.25;0.25;;;15.90;99.90;;;;;;4879415;29;20045;-86
2022/06/12 05:36:54;;;;;;;0.17;0.17;;;15.90;99.90;;;;;;4864442;29;20040;-84
2022/06/12 05:39:20;;;;;;;5.78;1.10;;;16.70;99.90;;;;;;4879589;29;20397;-84
2022/06/12 05:41:46;;;;;;;0.20;0.20;;;17.30;99.90;;;;;;4879186;29;20056;-83
2022/06/12 05:44:13;;;;;;;0.20;0.20;;;17.60;99.90;;;;;;4879790;29;20048;-84
2022/06/12 05:46:40;;;;;;;0.00;0.00;;;18.20;99.90;;;;;;4864294;29;20041;-84
2022/06/12 05:49:06;;;;;;;0.10;0.10;;;19.00;99.90;;;;;;4864182;29;20511;-84
2022/06/12 05:51:33;;;;;;;0.10;0.10;;;19.80;99.90;;;;;;4879548;29;20045;-84
2022/06/12 05:53:59;;;;;;;0.10;0.10;;;20.50;99.90;;;;;;4879696;29;20365;-83
2022/06/12 05:56:27;;;;;;;0.28;0.28;;;21.30;99.90;;;;;;4863872;29;20101;-83
2022/06/12 05:58:53;;;;;;;0.32;0.30;;;21.80;99.90;;;;;;4864239;29;20048;-83
2022/06/12 06:01:20;;;;;;;0.65;0.38;;;22.40;99.90;;;;;;4879499;29;20376;-83
2022/06/12 06:03:47;;;;;;;0.40;0.25;;;23.30;99.90;;;;;;4863926;29;20136;-83
2022/06/12 06:06:23;;;;;;;0.60;0.60;;;23.40;99.90;;;;;;4879831;29;20372;-83
2022/06/12 06:08:51;;;;;;;0.10;0.10;;;23.80;99.90;;;;;;4879636;29;20385;-83
2022/06/12 06:11:19;;;;;;;1.65;1.55;;;24.00;99.90;;;;;;4863928;29;20044;-85
2022/06/12 06:13:46;;;;;;;0.25;0.22;;;24.40;99.90;;;;;;4863244;29;20049;-84
2022/06/12 06:16:11;;;;;;;0.55;0.32;;;25.00;99.90;;;;;;4878740;29;20041;-84
2022/06/12 06:18:40;;;;;;;0.30;0.22;;;25.90;99.90;;;;;;4863418;29;20096;-85
2022/06/12 06:21:11;;;;;;;0.75;0.75;;;25.90;99.90;;;;;;4864279;29;20453;-85
2022/06/12 06:23:38;;;;;;;1.45;0.30;;;26.10;99.90;;;;;;4879454;29;20085;-85
2022/06/12 06:26:04;;;;;;;0.75;0.75;;;25.70;99.90;;;;;;4878412;29;20128;-85
2022/06/12 06:28:30;;;;;;;0.10;0.10;;;24.80;99.90;;;;;;4879057;29;20093;-85
2022/06/12 06:30:56;;;;;;;0.50;0.50;;;24.30;99.90;;;;;;4878252;29;20045;-84
2022/06/12 06:33:22;;;;;;;0.57;0.57;;;24.30;99.90;;;;;;4878469;29;20053;-84
2022/06/12 06:35:49;;;;;;;0.03;0.03;;;24.80;99.90;;;;;;4878561;29;20037;-84
2022/06/12 06:38:15;;;;;;;0.10;0.10;;;25.20;99.90;;;;;;4878381;29;20045;-85
2022/06/12 06:40:41;;;;;;;2.38;0.32;;;25.80;99.90;;;;;;4859665;29;20081;-85
2022/06/12 06:43:07;;;;;;;1.15;0.52;;;26.20;99.90;;;;;;4860004;29;20088;-87
2022/06/12 06:48:19;;;;;;;1.03;0.67;;;26.90;99.10;;;;;;4860058;29;20049;-87
2022/06/12 06:50:45;;;;;;;3.20;0.85;;;26.70;99.10;;;;;;4844502;29;20653;-87
2022/06/12 06:53:11;;;;;;;2.03;1.10;;;26.30;99.20;;;;;;4862799;29;20120;-87
2022/06/12 06:55:38;;;;;;;0.00;0.00;;;25.80;98.90;;;;;;4878515;29;20124;-86
2022/06/12 06:58:11;;;;;;;0.73;0.73;;;26.00;99.90;;;;;;4878750;29;20476;-86
2022/06/12 07:00:38;;;;;;;1.40;1.10;;;25.80;98.40;;;;;;4880780;29;20084;-88
2022/06/12 07:03:05;;;;;;;0.00;0.00;;;25.80;99.60;;;;;;4866654;29;20040;-88
2022/06/12 07:05:31;;;;;;;0.75;0.75;;;26.30;99.50;;;;;;4863192;29;20042;-89
2022/06/12 07:07:57;;;;;;;0.10;0.10;;;26.90;98.50;;;;;;4879631;29;20045;-88
2022/06/12 07:10:25;;;;;;;0.80;0.80;;;28.20;96.50;;;;;;4866070;29;20484;-88
2022/06/12 07:12:51;;;;;;;0.73;0.60;;;28.10;95.90;;;;;;4859942;29;20053;-88
2022/06/12 07:15:19;;;;;;;0.20;0.20;;;28.70;95.40;;;;;;4878598;29;20049;-89
2022/06/12 07:17:45;;;;;;;0.32;0.30;;;29.00;94.80;;;;;;4868307;29;20049;-87
2022/06/12 07:20:15;;;;;;;0.30;0.30;;;29.60;94.00;;;;;;4866647;29;20084;-88
2022/06/12 07:22:41;;;;;;;0.10;0.10;;;30.20;92.40;;;;;;4866584;29;20067;-87
2022/06/12 07:25:09;;;;;;;0.70;0.70;;;30.10;90.70;;;;;;4866141;29;20059;-87
2022/06/12 07:27:34;;;;;;;0.20;0.20;;;30.00;90.80;;;;;;4878839;29;20052;-87
2022/06/12 07:30:01;;;;;;;0.30;0.30;;;30.00;90.10;;;;;;4847623;29;20409;-88
2022/06/12 07:32:27;;;;;;;2.33;0.65;;;30.40;89.10;;;;;;4847764;29;20045;-87
2022/06/12 07:34:53;;;;;;;0.10;0.10;;;29.80;89.40;;;;;;4863098;29;20052;-88
2022/06/12 07:37:20;;;;;;;0.10;0.10;;;29.80;87.10;;;;;;4863040;29;20042;-87
2022/06/12 07:39:46;;;;;;;0.10;0.10;;;30.10;86.10;;;;;;4862822;29;20057;-88
2022/06/12 07:42:12;;;;;;;0.17;0.17;;;30.60;88.20;;;;;;4881475;29;20055;-88
2022/06/12 07:44:38;;;;;;;0.30;0.30;;;31.00;84.60;;;;;;4881413;29;20041;-88
2022/06/12 07:47:04;;;;;;;0.35;0.35;;;30.30;84.10;;;;;;4880408;29;20576;-86
2022/06/12 07:49:31;;;;;;;0.52;0.35;;;30.00;85.30;;;;;;4881664;29;20080;-85
2022/06/12 07:52:00;;;;;;;0.30;0.30;;;30.30;82.50;;;;;;4878439;29;20163;-86
2022/06/12 07:54:27;;;;;;;0.38;0.30;;;30.70;82.80;;;;;;4863136;29;20067;-86
2022/06/12 07:56:52;;;;;;;0.20;0.20;;;31.30;82.20;;;;;;4847680;29;20560;-85
2022/06/12 07:59:18;;;;;;;0.32;0.32;;;31.50;80.50;;;;;;4832487;29;20077;-85
2022/06/12 08:01:44;;;;;;;0.68;0.47;;;31.70;78.20;;;;;;4862755;29;20045;-85
2022/06/12 08:04:11;;;;;;;1.27;1.10;;;30.60;78.20;;;;;;4862474;29;20087;-85
2022/06/12 08:06:37;;;;;;;2.33;0.90;;;30.60;80.80;;;;;;4862899;29;20045;-83
2022/06/12 08:09:05;;;;;;;0.10;0.10;;;29.90;80.00;;;;;;4859602;29;20052;-84
2022/06/12 08:11:32;;;;;;;0.52;0.43;;;28.40;80.70;;;;;;4861317;29;20045;-83
2022/06/12 08:13:59;;;;;;;0.10;0.10;;;27.20;83.50;;;;;;4848496;29;20144;-84
2022/06/12 08:16:24;;;;;;;0.10;0.10;;;26.40;84.90;;;;;;4877549;29;20060;-83
2022/06/12 08:18:50;;;;;;;0.00;0.00;;;25.70;85.70;;;;;;4846980;29;20053;-83
2022/06/12 08:21:17;;;;;;;0.00;0.00;;;25.10;84.70;;;;;;4862271;29;20082;-83
2022/06/12 08:23:50;;;;;;;0.10;0.10;;;26.30;84.60;;;;;;4847530;29;20473;-83
2022/06/12 08:26:26;;;;;;;0.25;0.25;;;28.40;83.20;;;;;;4847349;29;20124;-83
2022/06/12 08:28:56;;;;;;;0.43;0.43;;;29.30;83.20;;;;;;4877659;29;20630;-83
2022/06/12 08:31:43;;;;;;;0.30;0.30;;;30.40;78.40;;;;;;4880934;29;20500;-84
2022/06/12 08:34:23;;;;;;;0.15;0.15;;;31.70;75.30;;;;;;4874688;29;20077;-83
2022/06/12 08:36:56;;;;;;;0.10;0.10;;;31.90;76.80;;;;;;4865317;29;20041;-83
2022/06/12 08:39:22;;;;;;;0.10;0.10;;;32.70;77.90;;;;;;4880684;29;20037;-85
2022/06/12 08:41:56;;;;;;;0.40;0.40;;;33.00;75.60;;;;;;4865189;29;20049;-86
2022/06/12 08:44:31;;;;;;;0.10;0.10;;;32.60;71.30;;;;;;4880814;29;20052;-84
2022/06/12 08:47:11;;;;;;;0.65;0.65;;;31.00;70.10;;;;;;4864883;29;20045;-84
2022/06/12 08:49:49;;;;;;;0.10;0.10;;;29.10;70.90;;;;;;4880137;29;20044;-83
2022/06/12 08:52:30;;;;;;;1.45;0.40;;;28.50;73.70;;;;;;4865302;29;20045;-83
2022/06/12 08:55:08;;;;;;;0.20;0.20;;;29.00;74.50;;;;;;4880381;29;20048;-83
2022/06/12 08:57:52;;;;;;;0.20;0.20;;;30.10;71.90;;;;;;4880288;29;20193;-81
2022/06/12 09:00:24;;;;;;;0.00;0.00;;;31.10;71.90;;;;;;4880794;29;20052;-81
2022/06/12 09:02:51;;;;;;;0.17;0.17;;;32.00;70.50;;;;;;4864518;29;20044;-83
2022/06/12 09:05:26;;;;;;;0.10;0.10;;;32.30;69.20;;;;;;4877238;29;20050;-83
2022/06/12 09:08:09;;;;;;;0.00;0.00;;;32.50;68.70;;;;;;4895343;29;20053;-84
2022/06/12 09:10:45;;;;;;;0.10;0.10;;;32.30;68.20;;;;;;4879777;29;20049;-84
2022/06/12 09:13:15;;;;;;;0.10;0.10;;;32.90;69.20;;;;;;4888523;29;20116;-82
2022/06/12 09:16:01;;;;;;;0.35;0.35;;;33.40;67.60;;;;;;4876751;29;20128;-82
2022/06/12 09:18:48;;;;;;;0.85;0.30;;;34.10;68.50;;;;;;4879792;29;20051;-82
2022/06/12 09:21:27;;;;;;;0.20;0.20;;;31.70;66.00;;;;;;4864411;29;20059;-83
2022/06/12 09:24:14;;;;;;;1.48;0.68;;;31.10;66.10;;;;;;4879585;29;20128;-81
2022/06/12 09:27:05;;;;;;;0.10;0.10;;;30.00;68.90;;;;;;4864149;29;20132;-82
2022/06/12 09:29:54;;;;;;;0.10;0.10;;;30.10;71.30;;;;;;4878729;29;20488;-81
2022/06/12 09:32:24;;;;;;;0.60;0.60;;;31.10;71.10;;;;;;4880129;29;20164;-82
2022/06/12 09:34:52;;;;;;;0.20;0.20;;;31.80;67.90;;;;;;4891874;29;20045;-82
2022/06/12 09:40:29;;;;;;;0.10;0.10;;;30.30;68.60;;;;;;4879702;29;20060;-83
2022/06/12 09:42:59;;;;;;;1.45;1.35;;;31.60;68.90;;;;;;4879677;29;20049;-83
2022/06/12 09:45:43;;;;;;;0.95;0.30;;;31.10;68.10;;;;;;4864308;29;20049;-83
2022/06/12 09:48:20;;;;;;;0.10;0.10;;;30.00;67.40;;;;;;4879274;29;20051;-86
2022/06/12 09:51:14;;;;;;;0.65;0.63;;;30.90;69.50;;;;;;4863424;29;20045;-84
2022/06/12 09:53:47;;;;;;;0.20;0.20;;;31.50;67.20;;;;;;4863881;29;20369;-86
2022/06/12 09:56:20;;;;;;;0.30;0.30;;;30.80;67.50;;;;;;4863678;29;20036;-88
2022/06/12 09:59:05;;;;;;;0.38;0.32;;;31.00;68.10;;;;;;4876033;29;20045;-88
2022/06/12 10:01:37;;;;;;;0.00;0.00;;;30.10;67.40;;;;;;4863436;29;20049;-87
2022/06/12 10:04:13;;;;;;;0.47;0.47;;;30.60;69.20;;;;;;4852747;29;20511;-88
2022/06/12 10:06:58;;;;;;;0.75;0.75;;;30.70;68.60;;;;;;4862030;29;20045;-89
2022/06/12 10:09:23;;;;;;;0.10;0.10;;;31.00;67.80;;;;;;4863920;29;20053;-88
2022/06/12 10:12:17;;;;;;;0.10;0.10;;;31.10;66.80;;;;;;4875366;29;20140;-88
2022/06/12 10:14:56;;;;;;;0.08;0.08;;;30.90;67.60;;;;;;4854196;29;20202;-89
2022/06/12 10:17:26;;;;;;;0.10;0.10;;;30.60;67.90;;;;;;4876140;29;20060;-88
2022/06/12 10:20:12;;;;;;;0.45;0.45;;;31.20;66.70;;;;;;4844732;29;20046;-84
2022/06/12 10:22:46;;;;;;;0.15;0.15;;;31.70;67.70;;;;;;4877796;29;20500;-84
2022/06/12 10:25:22;;;;;;;0.00;0.00;;;32.20;66.40;;;;;;4878124;29;20041;-83
2022/06/12 10:27:55;;;;;;;1.92;1.17;;;32.60;65.30;;;;;;4876390;29;20072;-83
2022/06/12 10:30:33;;;;;;;0.47;0.47;;;33.60;66.10;;;;;;4862339;29;20037;-83
2022/06/12 10:33:30;;;;;;;0.43;0.43;;;33.40;65.20;;;;;;4876509;29;20128;-83
2022/06/12 10:36:05;;;;;;;0.20;0.20;;;32.20;64.60;;;;;;4876536;29;20077;-89
2022/06/12 10:38:36;;;;;;;0.13;0.10;;;31.60;65.30;;;;;;4863122;29;20045;-88
2022/06/12 10:41:06;;;;;;;1.00;0.95;;;31.60;65.90;;;;;;4878128;29;20092;-85
2022/06/12 10:43:38;;;;;;;0.10;0.10;;;30.50;64.80;;;;;;4878455;29;20041;-90
2022/06/12 10:46:16;;;;;;;0.03;0.03;;;29.30;66.80;;;;;;4878653;29;20045;-88
2022/06/12 10:48:43;;;;;;;0.10;0.10;;;29.80;68.80;;;;;;4878911;29;20084;-91
2022/06/12 10:51:17;;;;;;;3.78;0.63;;;30.60;67.10;;;;;;4862922;29;20045;-89
2022/06/12 10:53:43;;;;;;;0.20;0.20;;;30.50;66.60;;;;;;4875457;29;20370;-89
2022/06/12 10:56:31;;;;;;;0.13;0.13;;;31.00;66.20;;;;;;4878332;29;20048;-89
2022/06/12 10:59:11;;;;;;;0.17;0.17;;;31.70;64.90;;;;;;4878467;29;20052;-89
2022/06/12 11:02:04;;;;;;;0.17;0.17;;;31.50;64.80;;;;;;4870398;29;20045;-89
2022/06/12 11:04:51;;;;;;;0.32;0.32;;;30.30;65.70;;;;;;4893190;29;20425;-87
2022/06/12 11:07:23;;;;;;;0.13;0.13;;;29.70;65.90;;;;;;4878015;29;20120;-87
2022/06/12 11:09:59;;;;;;;0.35;0.35;;;29.50;66.70;;;;;;4878712;29;20049;-83
2022/06/12 11:12:32;;;;;;;0.43;0.43;;;29.30;65.60;;;;;;4881804;29;20045;-83
2022/06/12 11:15:19;;;;;;;0.30;0.30;;;29.80;65.60;;;;;;4886034;29;20137;-82
2022/06/12 11:18:00;;;;;;;0.10;0.10;;;30.50;64.70;;;;;;4897530;29;20079;-81
2022/06/12 11:20:47;;;;;;;1.35;0.50;;;31.00;64.60;;;;;;4896748;29;20087;-82
2022/06/12 11:23:31;;;;;;;0.10;0.10;;;31.10;63.90;;;;;;4880966;29;20045;-82
2022/06/12 11:26:26;;;;;;;0.10;0.10;;;31.00;63.30;;;;;;4860104;29;20102;-81
2022/06/12 11:29:17;;;;;;;0.15;0.15;;;30.40;62.20;;;;;;4856814;29;20057;-81
2022/06/12 11:32:14;;;;;;;0.10;0.10;;;28.70;63.60;;;;;;4878791;29;20049;-86
2022/06/12 11:35:17;;;;;;;0.10;0.10;;;28.30;67.40;;;;;;4859451;29;20052;-87
2022/06/12 11:38:04;;;;;;;0.40;0.40;;;29.00;67.90;;;;;;4859570;29;20048;-88
2022/06/12 11:40:44;;;;;;;0.88;0.52;;;28.90;66.60;;;;;;4859578;29;20060;-87
2022/06/12 11:43:20;;;;;;;0.13;0.13;;;29.00;67.20;;;;;;4844623;29;20042;-87
2022/06/12 11:46:20;;;;;;;0.32;0.32;;;28.40;66.50;;;;;;4867601;29;20055;-87
2022/06/12 11:49:10;;;;;;;0.08;0.08;;;28.60;67.10;;;;;;4881213;29;20091;-87
2022/06/12 11:51:55;;;;;;;0.08;0.08;;;28.40;67.60;;;;;;4865852;29;20049;-87
2022/06/12 11:54:27;;;;;;;0.10;0.10;;;28.60;66.70;;;;;;4881225;29;20044;-87
2022/06/12 11:57:11;;;;;;;0.05;0.05;;;28.70;66.20;;;;;;4865797;29;20048;-87
2022/06/12 11:59:56;;;;;;;2.25;0.32;;;28.60;65.50;;;;;;4865724;29;20563;-88
2022/06/12 12:03:04;;;;;;;0.10;0.10;;;28.20;66.10;;;;;;4865741;29;20041;-87
2022/06/12 12:05:58;;;;;;;0.30;0.30;;;28.40;65.40;;;;;;4874414;29;20452;-87
2022/06/12 12:08:59;;;;;;;0.13;0.13;;;29.00;63.60;;;;;;4865566;29;20048;-88
2022/06/12 12:11:48;;;;;;;0.00;0.00;;;28.90;64.30;;;;;;4866366;29;20041;-88
2022/06/12 12:14:27;;;;;;;0.10;0.10;;;29.00;63.70;;;;;;4897564;29;20084;-88
2022/06/12 12:17:01;;;;;;;0.25;0.25;;;29.10;63.60;;;;;;4871279;29;20104;-83
2022/06/12 12:19:47;;;;;;;0.43;0.43;;;29.40;63.90;;;;;;4880985;29;20045;-83
2022/06/12 12:22:38;;;;;;;0.10;0.10;;;29.10;62.60;;;;;;4881267;29;20416;-83
2022/06/12 12:25:19;;;;;;;0.15;0.15;;;29.10;63.60;;;;;;4881041;29;20048;-82
2022/06/12 12:27:52;;;;;;;0.15;0.15;;;28.90;62.90;;;;;;4881187;29;20052;-82
2022/06/12 12:30:33;;;;;;;0.10;0.10;;;29.20;63.30;;;;;;4880934;29;20407;-82
2022/06/12 12:33:02;;;;;;;0.10;0.10;;;29.50;63.30;;;;;;4865307;29;20084;-87
2022/06/12 12:41:17;;;;;;;0.65;0.65;;;30.10;64.40;;;;;;4861906;29;20053;-88
2022/06/12 12:43:50;;;;;;;0.10;0.10;;;29.20;62.70;;;;;;4862287;29;20053;-87
2022/06/12 12:46:16;;;;;;;0.55;0.55;;;29.10;63.40;;;;;;4876973;29;20045;-87
2022/06/12 12:48:45;;;;;;;0.20;0.20;;;28.10;64.30;;;;;;4879907;29;20090;-87
2022/06/12 12:51:26;;;;;;;0.10;0.10;;;27.80;65.00;;;;;;4880252;29;20049;-87
2022/06/12 12:53:52;;;;;;;0.32;0.20;;;27.50;66.40;;;;;;4864989;29;20388;-88
2022/06/12 12:56:31;;;;;;;0.08;0.08;;;27.80;66.30;;;;;;4833415;29;20042;-87
2022/06/12 12:59:03;;;;;;;1.08;0.20;;;28.10;66.60;;;;;;4861019;29;20049;-88
2022/06/12 13:01:42;;;;;;;0.10;0.10;;;28.60;65.70;;;;;;4861818;29;20467;-88
2022/06/12 13:04:29;;;;;;;0.00;0.00;;;28.60;64.80;;;;;;4861539;29;20090;-86
2022/06/12 13:07:20;;;;;;;0.10;0.10;;;28.40;65.80;;;;;;4859231;29;20399;-81
2022/06/12 13:10:19;;;;;;;0.47;0.10;;;28.50;66.60;;;;;;4892926;29;20052;-82
2022/06/12 13:13:03;;;;;;;0.13;0.13;;;28.20;65.90;;;;;;4856784;29;20386;-82
2022/06/12 13:16:14;;;;;;;0.93;0.85;;;28.00;65.50;;;;;;4883674;29;20063;-82
2022/06/12 13:18:56;;;;;;;0.10;0.10;;;27.40;66.90;;;;;;4858259;29;20065;-81
2022/06/12 13:21:47;;;;;;;0.00;0.00;;;27.20;64.90;;;;;;4879895;29;20097;-82
2022/06/12 13:24:36;;;;;;;0.22;0.22;;;26.40;66.40;;;;;;4880393;29;20193;-86
2022/06/12 13:27:20;;;;;;;0.43;0.38;;;25.70;68.50;;;;;;4879610;29;20568;-86
2022/06/12 13:29:47;;;;;;;0.32;0.32;;;25.70;69.20;;;;;;4879468;29;20100;-86
2022/06/12 13:32:35;;;;;;;0.35;0.30;;;25.80;69.20;;;;;;4879455;29;20080;-84
2022/06/12 13:35:03;;;;;;;0.10;0.10;;;25.40;68.10;;;;;;4864289;29;20515;-85
2022/06/12 13:37:35;;;;;;;1.23;1.13;;;25.40;68.70;;;;;;4879771;29;20041;-83
2022/06/12 13:40:03;;;;;;;0.10;0.10;;;25.90;68.40;;;;;;4879449;29;20536;-82
2022/06/12 13:42:30;;;;;;;0.00;0.00;;;26.20;67.80;;;;;;4879588;29;20556;-80
2022/06/12 13:44:57;;;;;;;0.05;0.05;;;26.40;67.30;;;;;;4879457;29;20056;-80
2022/06/12 13:47:31;;;;;;;0.20;0.20;;;26.40;66.60;;;;;;4880030;29;20045;-84